createdAt,value
2023-03-04T00:00:39.000Z,2.00
2023-03-04T00:01:39.000Z,2.01
2023-03-04T00:02:39.000Z,2.00
2023-03-04T00:03:39.000Z,1.98
2023-03-04T00:04:39.000Z,1.98
2023-03-04T00:05:39.000Z,1.93
2023-03-04T00:06:39.000Z,2.01
2023-03-04T00:07:39.000Z,1.95
2023-03-04T00:08:39.000Z,1.95
2023-03-04T00:09:39.000Z,2.00
2023-03-04T00:10:39.000Z,2.01
2023-03-04T00:11:39.000Z,1.98
2023-03-04T00:12:39.000Z,2.00
2023-03-04T00:13:39.000Z,2.00
2023-03-04T00:14:39.000Z,2.00
2023-03-04T00:15:39.000Z,1.95
2023-03-04T00:16:39.000Z,2.01
2023-03-04T00:17:39.000Z,1.98
2023-03-04T00:18:39.000Z,1.98
2023-03-04T00:19:39.000Z,2.04
2023-03-04T00:20:39.000Z,2.00
2023-03-04T00:21:39.000Z,2.02
2023-03-04T00:22:39.000Z,2.02
2023-03-04T00:23:39.000Z,2.02
2023-03-04T00:24:39.000Z,2.02
2023-03-04T00:25:39.000Z,2.01
2023-03-04T00:26:39.000Z,2.00
2023-03-04T00:27:39.000Z,1.98
2023-03-04T00:28:39.000Z,2.00
2023-03-04T00:29:39.000Z,2.04
2023-03-04T00:30:39.000Z,2.01
2023-03-04T00:31:39.000Z,1.95
2023-03-04T00:32:39.000Z,2.01
2023-03-04T00:33:39.000Z,2.02
2023-03-04T00:34:39.000Z,1.98
2023-03-04T00:35:39.000Z,1.93
2023-03-04T00:36:39.000Z,2.00
2023-03-04T00:37:39.000Z,1.98
2023-03-04T00:38:39.000Z,1.92
2023-03-04T00:39:39.000Z,1.92
2023-03-04T00:40:39.000Z,1.89
2023-03-04T00:41:39.000Z,1.95
2023-03-04T00:42:39.000Z,1.95
2023-03-04T00:43:39.000Z,1.92
2023-03-04T00:44:39.000Z,1.90
2023-03-04T00:45:39.000Z,1.86
2023-03-04T00:46:39.000Z,1.83
2023-03-04T00:47:39.000Z,1.85
2023-03-04T00:48:39.000Z,1.83
2023-03-04T00:49:39.000Z,1.82
2023-03-04T00:50:39.000Z,1.79
2023-03-04T00:51:38.000Z,1.79
2023-03-04T00:52:38.000Z,1.79
2023-03-04T00:53:38.000Z,1.81
2023-03-04T00:54:38.000Z,1.79
2023-03-04T00:55:38.000Z,1.77
2023-03-04T00:56:38.000Z,1.82
2023-03-04T00:57:38.000Z,1.83
2023-03-04T00:58:38.000Z,1.77
2023-03-04T00:59:38.000Z,1.77
2023-03-04T01:00:38.000Z,1.83
2023-03-04T01:01:38.000Z,1.82
2023-03-04T01:02:38.000Z,1.85
2023-03-04T01:03:38.000Z,1.89
2023-03-04T01:04:38.000Z,1.89
2023-03-04T01:05:38.000Z,1.88
2023-03-04T01:06:38.000Z,1.83
2023-03-04T01:07:38.000Z,1.83
2023-03-04T01:08:38.000Z,1.90
2023-03-04T01:09:38.000Z,1.88
2023-03-04T01:10:38.000Z,1.88
2023-03-04T01:11:38.000Z,1.89
2023-03-04T01:12:38.000Z,1.88
2023-03-04T01:13:38.000Z,1.89
2023-03-04T01:14:38.000Z,1.86
2023-03-04T01:15:38.000Z,1.83
2023-03-04T01:16:38.000Z,1.86
2023-03-04T01:17:38.000Z,1.85
2023-03-04T01:18:38.000Z,1.86
2023-03-04T01:19:38.000Z,1.88
2023-03-04T01:20:38.000Z,1.85
2023-03-04T01:21:38.000Z,1.88
2023-03-04T01:22:38.000Z,1.83
2023-03-04T01:23:38.000Z,1.86
2023-03-04T01:24:38.000Z,1.86
2023-03-04T01:25:38.000Z,1.89
2023-03-04T01:26:38.000Z,1.88
2023-03-04T01:27:38.000Z,1.86
2023-03-04T01:28:38.000Z,1.88
2023-03-04T01:29:38.000Z,1.90
2023-03-04T01:30:38.000Z,1.88
2023-03-04T01:31:38.000Z,1.89
2023-03-04T01:32:38.000Z,1.83
2023-03-04T01:33:38.000Z,1.86
2023-03-04T01:34:38.000Z,1.81
2023-03-04T01:35:38.000Z,1.86
2023-03-04T01:36:38.000Z,1.85
2023-03-04T01:37:38.000Z,1.83
2023-03-04T01:38:38.000Z,1.81
2023-03-04T01:39:38.000Z,1.77
2023-03-04T01:40:38.000Z,1.81
2023-03-04T01:41:38.000Z,1.83
2023-03-04T01:42:38.000Z,1.82
2023-03-04T01:43:38.000Z,1.77
2023-03-04T01:44:38.000Z,1.79
2023-03-04T01:45:38.000Z,1.77
2023-03-04T01:46:38.000Z,1.79
2023-03-04T01:47:38.000Z,1.83
2023-03-04T01:48:38.000Z,1.79
2023-03-04T01:49:38.000Z,1.82
2023-03-04T01:50:38.000Z,1.79
2023-03-04T01:51:38.000Z,1.74
2023-03-04T01:52:38.000Z,1.79
2023-03-04T01:53:38.000Z,1.81
2023-03-04T01:54:38.000Z,1.77
2023-03-04T01:55:38.000Z,1.81
2023-03-04T01:56:38.000Z,1.79
2023-03-04T01:57:38.000Z,1.81
2023-03-04T01:58:38.000Z,1.75
2023-03-04T01:59:38.000Z,1.79
2023-03-04T02:00:38.000Z,1.82
2023-03-04T02:01:38.000Z,1.81
2023-03-04T02:02:38.000Z,1.81
2023-03-04T02:03:38.000Z,1.79
2023-03-04T02:04:38.000Z,1.81
2023-03-04T02:05:38.000Z,1.74
2023-03-04T02:06:38.000Z,1.75
2023-03-04T02:07:38.000Z,1.74
2023-03-04T02:08:38.000Z,1.79
2023-03-04T02:09:38.000Z,1.72
2023-03-04T02:10:38.000Z,1.81
2023-03-04T02:11:38.000Z,1.79
2023-03-04T02:12:38.000Z,1.74
2023-03-04T02:13:38.000Z,1.79
2023-03-04T02:14:38.000Z,1.81
2023-03-04T02:15:38.000Z,1.75
2023-03-04T02:16:38.000Z,1.75
2023-03-04T02:17:38.000Z,1.79
2023-03-04T02:18:38.000Z,1.81
2023-03-04T02:19:38.000Z,1.79
2023-03-04T02:20:38.000Z,1.82
2023-03-04T02:21:38.000Z,1.82
2023-03-04T02:22:38.000Z,1.85
2023-03-04T02:23:38.000Z,1.82
2023-03-04T02:24:38.000Z,1.83
2023-03-04T02:25:38.000Z,1.89
2023-03-04T02:26:38.000Z,1.89
2023-03-04T02:27:38.000Z,1.85
2023-03-04T02:28:38.000Z,1.88
2023-03-04T02:29:38.000Z,1.85
2023-03-04T02:30:38.000Z,1.90
2023-03-04T02:31:38.000Z,1.90
2023-03-04T02:32:38.000Z,1.93
2023-03-04T02:33:38.000Z,1.88
2023-03-04T02:34:38.000Z,1.89
2023-03-04T02:35:37.000Z,1.90
2023-03-04T02:36:37.000Z,1.93
2023-03-04T02:37:37.000Z,1.95
2023-03-04T02:38:37.000Z,1.95
2023-03-04T02:39:37.000Z,1.93
2023-03-04T02:40:37.000Z,2.02
2023-03-04T02:41:37.000Z,1.95
2023-03-04T02:42:37.000Z,2.01
2023-03-04T02:43:37.000Z,2.00
2023-03-04T02:44:37.000Z,2.00
2023-03-04T02:45:37.000Z,2.04
2023-03-04T02:46:37.000Z,2.05
2023-03-04T02:47:37.000Z,2.08
2023-03-04T02:48:37.000Z,2.05
2023-03-04T02:49:37.000Z,2.11
2023-03-04T02:50:37.000Z,2.11
2023-03-04T02:51:37.000Z,2.09
2023-03-04T02:52:37.000Z,2.09
2023-03-04T02:53:37.000Z,2.11
2023-03-04T02:54:37.000Z,2.15
2023-03-04T02:55:37.000Z,2.11
2023-03-04T02:56:37.000Z,2.09
2023-03-04T02:57:37.000Z,2.15
2023-03-04T02:58:37.000Z,2.15
2023-03-04T02:59:37.000Z,2.19
2023-03-04T03:00:37.000Z,2.12
2023-03-04T03:01:37.000Z,2.19
2023-03-04T03:02:37.000Z,2.18
2023-03-04T03:03:37.000Z,2.19
2023-03-04T03:04:37.000Z,2.15
2023-03-04T03:05:37.000Z,2.19
2023-03-04T03:06:37.000Z,2.20
2023-03-04T03:07:37.000Z,2.23
2023-03-04T03:08:37.000Z,2.23
2023-03-04T03:09:37.000Z,2.20
2023-03-04T03:10:37.000Z,2.22
2023-03-04T03:11:37.000Z,2.23
2023-03-04T03:12:37.000Z,2.27
2023-03-04T03:13:37.000Z,2.26
2023-03-04T03:14:37.000Z,2.26
2023-03-04T03:15:37.000Z,2.27
2023-03-04T03:16:37.000Z,2.30
2023-03-04T03:17:37.000Z,2.27
2023-03-04T03:18:37.000Z,2.30
2023-03-04T03:19:37.000Z,2.29
2023-03-04T03:20:37.000Z,2.32
2023-03-04T03:21:37.000Z,2.32
2023-03-04T03:22:37.000Z,2.29
2023-03-04T03:23:37.000Z,2.32
2023-03-04T03:24:37.000Z,2.33
2023-03-04T03:25:37.000Z,2.33
2023-03-04T03:26:37.000Z,2.33
2023-03-04T03:27:37.000Z,2.33
2023-03-04T03:28:37.000Z,2.36
2023-03-04T03:29:37.000Z,2.36
2023-03-04T03:30:37.000Z,2.44
2023-03-04T03:31:37.000Z,2.37
2023-03-04T03:32:37.000Z,2.44
2023-03-04T03:33:37.000Z,2.36
2023-03-04T03:34:37.000Z,2.38
2023-03-04T03:35:37.000Z,2.44
2023-03-04T03:36:37.000Z,2.40
2023-03-04T03:37:37.000Z,2.41
2023-03-04T03:38:37.000Z,2.38
2023-03-04T03:39:37.000Z,2.41
2023-03-04T03:40:37.000Z,2.50
2023-03-04T03:41:37.000Z,2.50
2023-03-04T03:42:37.000Z,2.47
2023-03-04T03:43:37.000Z,2.47
2023-03-04T03:44:37.000Z,2.48
2023-03-04T03:45:37.000Z,2.48
2023-03-04T03:46:37.000Z,2.56
2023-03-04T03:47:37.000Z,2.56
2023-03-04T03:48:37.000Z,2.53
2023-03-04T03:49:37.000Z,2.59
2023-03-04T03:50:37.000Z,2.56
2023-03-04T03:51:37.000Z,2.55
2023-03-04T03:52:37.000Z,2.62
2023-03-04T03:53:37.000Z,2.61
2023-03-04T03:54:37.000Z,2.58
2023-03-04T03:55:37.000Z,2.63
2023-03-04T03:56:37.000Z,2.65
2023-03-04T03:57:37.000Z,2.61
2023-03-04T03:58:37.000Z,2.65
2023-03-04T03:59:37.000Z,2.63
2023-03-04T04:00:37.000Z,2.61
2023-03-04T04:01:37.000Z,2.68
2023-03-04T04:02:37.000Z,2.66
2023-03-04T04:03:37.000Z,2.66
2023-03-04T04:04:37.000Z,2.69
2023-03-04T04:05:37.000Z,2.76
2023-03-04T04:06:37.000Z,2.71
2023-03-04T04:07:37.000Z,2.77
2023-03-04T04:08:37.000Z,2.74
2023-03-04T04:09:37.000Z,2.76
2023-03-04T04:10:37.000Z,2.79
2023-03-04T04:11:37.000Z,2.77
2023-03-04T04:12:37.000Z,2.74
2023-03-04T04:13:37.000Z,2.77
2023-03-04T04:14:37.000Z,2.81
2023-03-04T04:15:37.000Z,2.83
2023-03-04T04:16:37.000Z,2.81
2023-03-04T04:17:37.000Z,2.83
2023-03-04T04:18:37.000Z,2.83
2023-03-04T04:19:37.000Z,2.80
2023-03-04T04:20:37.000Z,2.81
2023-03-04T04:21:36.000Z,2.87
2023-03-04T04:22:36.000Z,2.86
2023-03-04T04:23:36.000Z,2.87
2023-03-04T04:24:36.000Z,2.89
2023-03-04T04:25:36.000Z,2.87
2023-03-04T04:26:36.000Z,2.84
2023-03-04T04:27:36.000Z,2.87
2023-03-04T04:28:36.000Z,2.86
2023-03-04T04:29:36.000Z,2.89
2023-03-04T04:30:36.000Z,2.87
2023-03-04T04:31:36.000Z,2.84
2023-03-04T04:32:36.000Z,2.87
2023-03-04T04:33:36.000Z,2.86
2023-03-04T04:34:36.000Z,2.89
2023-03-04T04:35:36.000Z,2.84
2023-03-04T04:36:36.000Z,2.87
2023-03-04T04:37:36.000Z,2.92
2023-03-04T04:38:36.000Z,2.86
2023-03-04T04:39:36.000Z,2.86
2023-03-04T04:40:36.000Z,2.86
2023-03-04T04:41:36.000Z,2.84
2023-03-04T04:42:36.000Z,2.84
2023-03-04T04:43:36.000Z,2.87
2023-03-04T04:44:36.000Z,2.87
2023-03-04T04:45:36.000Z,2.90
2023-03-04T04:46:36.000Z,2.86
2023-03-04T04:47:36.000Z,2.94
2023-03-04T04:48:36.000Z,2.92
2023-03-04T04:49:36.000Z,2.92
2023-03-04T04:50:36.000Z,2.92
2023-03-04T04:51:36.000Z,2.97
2023-03-04T04:52:36.000Z,2.90
2023-03-04T04:53:36.000Z,2.97
2023-03-04T04:54:36.000Z,2.90
2023-03-04T04:55:36.000Z,2.97
2023-03-04T04:56:36.000Z,2.98
2023-03-04T04:57:36.000Z,2.97
2023-03-04T04:58:36.000Z,2.94
2023-03-04T04:59:36.000Z,2.95
2023-03-04T05:00:36.000Z,2.98
2023-03-04T05:01:36.000Z,2.95
2023-03-04T05:02:36.000Z,3.01
2023-03-04T05:03:36.000Z,2.98
2023-03-04T05:04:36.000Z,2.97
2023-03-04T05:05:36.000Z,2.98
2023-03-04T05:06:36.000Z,2.97
2023-03-04T05:07:36.000Z,3.01
2023-03-04T05:08:36.000Z,3.05
2023-03-04T05:09:36.000Z,3.04
2023-03-04T05:10:36.000Z,3.01
2023-03-04T05:11:36.000Z,3.04
2023-03-04T05:12:36.000Z,2.98
2023-03-04T05:13:36.000Z,3.04
2023-03-04T05:14:36.000Z,3.01
2023-03-04T05:15:36.000Z,3.05
2023-03-04T05:16:36.000Z,3.05
2023-03-04T05:17:36.000Z,3.04
2023-03-04T05:18:36.000Z,3.04
2023-03-04T05:19:36.000Z,3.04
2023-03-04T05:20:36.000Z,3.02
2023-03-04T05:21:36.000Z,3.08
2023-03-04T05:22:36.000Z,3.10
2023-03-04T05:23:36.000Z,3.02
2023-03-04T05:24:36.000Z,3.08
2023-03-04T05:25:36.000Z,3.08
2023-03-04T05:26:36.000Z,3.05
2023-03-04T05:27:36.000Z,3.07
2023-03-04T05:28:36.000Z,3.07
2023-03-04T05:29:36.000Z,3.10
2023-03-04T05:30:36.000Z,3.12
2023-03-04T05:31:36.000Z,3.08
2023-03-04T05:32:36.000Z,3.10
2023-03-04T05:33:36.000Z,3.08
2023-03-04T05:34:36.000Z,3.12
2023-03-04T05:35:36.000Z,3.12
2023-03-04T05:36:36.000Z,3.10
2023-03-04T05:37:36.000Z,3.07
2023-03-04T05:38:36.000Z,3.08
2023-03-04T05:39:36.000Z,3.07
2023-03-04T05:40:36.000Z,3.07
2023-03-04T05:41:36.000Z,3.08
2023-03-04T05:42:36.000Z,3.10
2023-03-04T05:43:36.000Z,3.13
2023-03-04T05:44:36.000Z,3.10
2023-03-04T05:45:36.000Z,3.08
2023-03-04T05:46:36.000Z,3.12
2023-03-04T05:47:36.000Z,3.16
2023-03-04T05:48:36.000Z,3.10
2023-03-04T05:49:36.000Z,3.16
2023-03-04T05:50:36.000Z,3.16
2023-03-04T05:51:36.000Z,3.10
2023-03-04T05:52:36.000Z,3.19
2023-03-04T05:53:36.000Z,3.12
2023-03-04T06:00:51.000Z,3.20
2023-03-04T06:00:51.000Z,3.19
2023-03-04T06:01:51.000Z,3.22
2023-03-04T06:02:51.000Z,3.23
2023-03-04T06:03:51.000Z,3.22
2023-03-04T06:04:51.000Z,3.26
2023-03-04T06:05:51.000Z,3.26
2023-03-04T06:06:51.000Z,3.28
2023-03-04T06:07:51.000Z,3.31
2023-03-04T06:08:51.000Z,3.26
2023-03-04T06:09:51.000Z,3.26
2023-03-04T06:10:51.000Z,3.26
2023-03-04T06:11:51.000Z,3.34
2023-03-04T06:12:51.000Z,3.31
2023-03-04T06:13:51.000Z,3.31
2023-03-04T06:14:51.000Z,3.28
2023-03-04T06:15:51.000Z,3.34
2023-03-04T06:16:51.000Z,3.34
2023-03-04T06:17:51.000Z,3.33
2023-03-04T06:18:51.000Z,3.31
2023-03-04T06:19:51.000Z,3.37
2023-03-04T06:20:51.000Z,3.34
2023-03-04T06:21:51.000Z,3.37
2023-03-04T06:22:51.000Z,3.31
2023-03-04T06:23:51.000Z,3.31
2023-03-04T06:24:51.000Z,3.37
2023-03-04T06:25:51.000Z,3.37
2023-03-04T06:26:51.000Z,3.41
2023-03-04T06:27:51.000Z,3.41
2023-03-04T06:28:51.000Z,3.39
2023-03-04T06:29:51.000Z,3.35
2023-03-04T06:30:51.000Z,3.35
2023-03-04T06:31:51.000Z,3.39
2023-03-04T06:32:51.000Z,3.42
2023-03-04T06:33:51.000Z,3.37
2023-03-04T06:34:51.000Z,3.44
2023-03-04T06:35:51.000Z,3.42
2023-03-04T06:36:51.000Z,3.46
2023-03-04T06:37:51.000Z,3.44
2023-03-04T06:38:51.000Z,3.44
2023-03-04T06:39:51.000Z,3.49
2023-03-04T06:40:51.000Z,3.50
2023-03-04T06:41:51.000Z,3.50
2023-03-04T06:42:51.000Z,3.49
2023-03-04T06:43:51.000Z,3.52
2023-03-04T06:44:51.000Z,3.49
2023-03-04T06:45:51.000Z,3.49
2023-03-04T06:46:51.000Z,3.53
2023-03-04T06:47:51.000Z,3.49
2023-03-04T06:48:51.000Z,3.54
2023-03-04T06:49:51.000Z,3.56
2023-03-04T06:50:51.000Z,3.53
2023-03-04T06:51:51.000Z,3.59
2023-03-04T06:52:51.000Z,3.62
2023-03-04T06:53:51.000Z,3.64
2023-03-04T06:54:51.000Z,3.60
2023-03-04T06:55:51.000Z,3.62
2023-03-04T06:56:51.000Z,3.64
2023-03-04T06:57:51.000Z,3.68
2023-03-04T06:58:51.000Z,3.68
2023-03-04T06:59:51.000Z,3.67
2023-03-04T07:00:51.000Z,3.68
2023-03-04T07:01:51.000Z,3.67
2023-03-04T07:02:51.000Z,3.72
2023-03-04T07:03:51.000Z,3.72
2023-03-04T07:04:51.000Z,3.74
2023-03-04T07:05:51.000Z,3.74
2023-03-04T07:06:51.000Z,3.75
2023-03-04T07:07:51.000Z,3.80
2023-03-04T07:08:51.000Z,3.75
2023-03-04T07:09:51.000Z,3.78
2023-03-04T07:10:51.000Z,3.78
2023-03-04T07:11:51.000Z,3.81
2023-03-04T07:12:51.000Z,3.81
2023-03-04T07:13:51.000Z,3.82
2023-03-04T07:14:51.000Z,3.82
2023-03-04T07:15:50.000Z,3.88
2023-03-04T07:16:50.000Z,3.86
2023-03-04T07:17:50.000Z,3.88
2023-03-04T07:18:50.000Z,3.92
2023-03-04T07:19:50.000Z,3.86
2023-03-04T07:20:50.000Z,3.89
2023-03-04T07:21:50.000Z,3.93
2023-03-04T07:22:50.000Z,3.90
2023-03-04T07:23:50.000Z,3.92
2023-03-04T07:24:50.000Z,3.93
2023-03-04T07:25:50.000Z,3.92
2023-03-04T07:26:50.000Z,3.93
2023-03-04T07:27:50.000Z,3.98
2023-03-04T07:28:50.000Z,3.95
2023-03-04T07:29:50.000Z,3.95
2023-03-04T07:30:50.000Z,3.98
2023-03-04T07:31:50.000Z,3.95
2023-03-04T07:32:50.000Z,3.95
2023-03-04T07:33:50.000Z,3.99
2023-03-04T07:34:50.000Z,4.06
2023-03-04T07:35:50.000Z,4.06
2023-03-04T07:36:50.000Z,4.04
2023-03-04T07:37:50.000Z,4.02
2023-03-04T07:38:50.000Z,4.02
2023-03-04T07:39:50.000Z,4.08
2023-03-04T07:40:50.000Z,4.13
2023-03-04T07:41:50.000Z,4.14
2023-03-04T07:42:50.000Z,4.16
2023-03-04T07:43:50.000Z,4.17
2023-03-04T07:44:50.000Z,4.11
2023-03-04T07:45:50.000Z,4.11
2023-03-04T07:46:50.000Z,4.20
2023-03-04T07:47:50.000Z,4.20
2023-03-04T07:48:50.000Z,4.16
2023-03-04T07:49:50.000Z,4.20
2023-03-04T07:50:50.000Z,4.24
2023-03-04T07:51:50.000Z,4.28
2023-03-04T07:52:50.000Z,4.31
2023-03-04T07:53:50.000Z,4.26
2023-03-04T07:54:50.000Z,4.32
2023-03-04T07:55:50.000Z,4.35
2023-03-04T07:56:50.000Z,4.35
2023-03-04T07:57:50.000Z,4.34
2023-03-04T07:58:50.000Z,4.34
2023-03-04T07:59:50.000Z,4.35
2023-03-04T08:00:50.000Z,4.39
2023-03-04T08:01:50.000Z,4.44
2023-03-04T08:02:50.000Z,4.42
2023-03-04T08:03:50.000Z,4.42
2023-03-04T08:04:50.000Z,4.47
2023-03-04T08:05:50.000Z,4.44
2023-03-04T08:06:50.000Z,4.50
2023-03-04T08:07:50.000Z,4.54
2023-03-04T08:08:50.000Z,4.57
2023-03-04T08:09:50.000Z,4.57
2023-03-04T08:10:50.000Z,4.57
2023-03-04T08:11:50.000Z,4.59
2023-03-04T08:12:50.000Z,4.62
2023-03-04T08:13:50.000Z,4.64
2023-03-04T08:14:50.000Z,4.67
2023-03-04T08:15:50.000Z,4.67
2023-03-04T08:16:50.000Z,4.71
2023-03-04T08:17:50.000Z,4.68
2023-03-04T08:18:50.000Z,4.72
2023-03-04T08:19:50.000Z,4.74
2023-03-04T08:20:50.000Z,4.74
2023-03-04T08:21:50.000Z,4.74
2023-03-04T08:22:50.000Z,4.74
2023-03-04T08:23:50.000Z,4.77
2023-03-04T08:24:50.000Z,4.77
2023-03-04T08:25:50.000Z,4.79
2023-03-04T08:26:50.000Z,4.83
2023-03-04T08:27:50.000Z,4.79
2023-03-04T08:28:50.000Z,4.86
2023-03-04T08:29:50.000Z,4.84
2023-03-04T08:30:50.000Z,4.79
2023-03-04T08:31:50.000Z,4.79
2023-03-04T08:32:50.000Z,4.77
2023-03-04T08:33:50.000Z,4.77
2023-03-04T08:34:50.000Z,4.84
2023-03-04T08:35:50.000Z,4.83
2023-03-04T08:36:50.000Z,4.84
2023-03-04T08:37:50.000Z,4.86
2023-03-04T08:38:50.000Z,4.86
2023-03-04T08:39:50.000Z,4.87
2023-03-04T08:40:50.000Z,4.88
2023-03-04T08:41:50.000Z,4.87
2023-03-04T08:42:50.000Z,4.94
2023-03-04T08:43:50.000Z,4.96
2023-03-04T08:44:50.000Z,5.01
2023-03-04T08:45:50.000Z,5.01
2023-03-04T08:46:50.000Z,5.06
2023-03-04T08:47:50.000Z,5.05
2023-03-04T08:48:50.000Z,5.09
2023-03-04T08:49:50.000Z,5.09
2023-03-04T08:50:50.000Z,5.14
2023-03-04T08:51:50.000Z,5.20
2023-03-04T08:52:50.000Z,5.17
2023-03-04T08:53:50.000Z,5.20
2023-03-04T08:54:50.000Z,5.17
2023-03-04T08:55:50.000Z,5.22
2023-03-04T08:56:50.000Z,5.24
2023-03-04T08:57:50.000Z,5.26
2023-03-04T08:58:50.000Z,5.27
2023-03-04T08:59:50.000Z,5.32
2023-03-04T09:00:50.000Z,5.32
2023-03-04T09:01:50.000Z,5.38
2023-03-04T09:02:50.000Z,5.37
2023-03-04T09:03:49.000Z,5.33
2023-03-04T09:04:49.000Z,5.37
2023-03-04T09:05:49.000Z,5.38
2023-03-04T09:06:49.000Z,5.41
2023-03-04T09:07:49.000Z,5.44
2023-03-04T09:08:49.000Z,5.47
2023-03-04T09:09:49.000Z,5.51
2023-03-04T09:09:49.000Z,5.51
2023-03-04T09:10:49.000Z,5.48
2023-03-04T09:10:49.000Z,5.48
2023-03-04T09:11:49.000Z,5.44
2023-03-04T09:11:49.000Z,5.44
2023-03-04T09:12:49.000Z,5.45
2023-03-04T09:12:49.000Z,5.45
2023-03-04T09:13:49.000Z,5.41
2023-03-04T09:13:49.000Z,5.41
2023-03-04T09:14:49.000Z,5.41
2023-03-04T09:15:49.000Z,5.44
2023-03-04T09:16:49.000Z,5.40
2023-03-04T09:17:49.000Z,5.41
2023-03-04T09:18:49.000Z,5.41
2023-03-04T09:19:49.000Z,5.47
2023-03-04T09:20:49.000Z,5.48
2023-03-04T09:21:49.000Z,5.51
2023-03-04T09:22:49.000Z,5.52
2023-03-04T09:23:49.000Z,5.55
2023-03-04T09:24:49.000Z,5.60
2023-03-04T09:25:49.000Z,5.60
2023-03-04T09:26:49.000Z,5.63
2023-03-04T09:27:49.000Z,5.65
2023-03-04T09:28:49.000Z,5.63
2023-03-04T09:29:49.000Z,5.66
2023-03-04T09:30:49.000Z,5.65
2023-03-04T09:31:49.000Z,5.66
2023-03-04T09:32:49.000Z,5.62
2023-03-04T09:33:49.000Z,5.62
2023-03-04T09:34:49.000Z,5.56
2023-03-04T09:35:49.000Z,5.56
2023-03-04T09:36:49.000Z,5.58
2023-03-04T09:37:49.000Z,5.58
2023-03-04T09:38:49.000Z,5.63
2023-03-04T09:39:49.000Z,5.63
2023-03-04T09:40:49.000Z,5.62
2023-03-04T09:41:49.000Z,5.60
2023-03-04T09:42:49.000Z,5.65
2023-03-04T09:43:49.000Z,5.67
2023-03-04T09:44:49.000Z,5.69
2023-03-04T09:45:49.000Z,5.75
2023-03-04T09:46:49.000Z,5.70
2023-03-04T09:47:49.000Z,5.73
2023-03-04T09:48:49.000Z,5.78
2023-03-04T09:49:49.000Z,5.80
2023-03-04T09:50:49.000Z,5.75
2023-03-04T09:51:49.000Z,5.70
2023-03-04T09:52:49.000Z,5.75
2023-03-04T09:53:49.000Z,5.74
2023-03-04T09:54:49.000Z,5.78
2023-03-04T09:55:49.000Z,5.80
2023-03-04T09:56:49.000Z,5.81
2023-03-04T09:57:49.000Z,5.85
2023-03-04T09:58:49.000Z,5.83
2023-03-04T09:59:49.000Z,5.81
2023-03-04T10:00:49.000Z,5.83
2023-03-04T10:01:49.000Z,5.84
2023-03-04T10:02:49.000Z,5.85
2023-03-04T10:03:49.000Z,5.87
2023-03-04T10:04:49.000Z,5.92
2023-03-04T10:05:49.000Z,5.95
2023-03-04T10:06:49.000Z,5.99
2023-03-04T10:07:49.000Z,6.03
2023-03-04T10:08:49.000Z,6.10
2023-03-04T10:09:49.000Z,6.11
2023-03-04T10:10:49.000Z,6.14
2023-03-04T10:11:49.000Z,6.16
2023-03-04T10:12:49.000Z,6.17
2023-03-04T10:13:49.000Z,6.20
2023-03-04T10:14:49.000Z,6.19
2023-03-04T10:15:49.000Z,6.20
2023-03-04T10:16:49.000Z,6.19
2023-03-04T10:17:49.000Z,6.21
2023-03-04T10:18:49.000Z,6.28
2023-03-04T10:19:49.000Z,6.27
2023-03-04T10:20:49.000Z,6.33
2023-03-04T10:21:49.000Z,6.32
2023-03-04T10:22:49.000Z,6.32
2023-03-04T10:23:49.000Z,6.35
2023-03-04T10:24:49.000Z,6.38
2023-03-04T10:25:49.000Z,6.39
2023-03-04T10:26:49.000Z,6.46
2023-03-04T10:27:49.000Z,6.46
2023-03-04T10:28:49.000Z,6.46
2023-03-04T10:29:49.000Z,6.51
2023-03-04T10:30:49.000Z,6.57
2023-03-04T10:31:49.000Z,6.53
2023-03-04T10:32:49.000Z,6.55
2023-03-04T10:33:49.000Z,6.57
2023-03-04T10:34:49.000Z,6.58
2023-03-04T10:35:49.000Z,6.57
2023-03-04T10:36:49.000Z,6.55
2023-03-04T10:37:49.000Z,6.57
2023-03-04T10:38:49.000Z,6.53
2023-03-04T10:39:49.000Z,6.55
2023-03-04T10:40:49.000Z,6.53
2023-03-04T10:41:49.000Z,6.51
2023-03-04T10:42:49.000Z,6.51
2023-03-04T10:43:49.000Z,6.53
2023-03-04T10:44:49.000Z,6.53
2023-03-04T10:45:49.000Z,6.58
2023-03-04T10:46:49.000Z,6.60
2023-03-04T10:47:48.000Z,6.68
2023-03-04T10:48:48.000Z,6.71
2023-03-04T10:49:48.000Z,6.81
2023-03-04T10:50:48.000Z,6.86
2023-03-04T10:51:48.000Z,6.91
2023-03-04T10:52:48.000Z,6.97
2023-03-04T10:53:48.000Z,7.04
2023-03-04T10:54:48.000Z,7.05
2023-03-04T10:55:48.000Z,7.08
2023-03-04T10:56:48.000Z,7.12
2023-03-04T10:57:48.000Z,7.11
2023-03-04T10:58:48.000Z,7.15
2023-03-04T10:59:48.000Z,7.16
2023-03-04T11:00:48.000Z,7.16
2023-03-04T11:01:48.000Z,7.18
2023-03-04T11:02:48.000Z,7.23
2023-03-04T11:03:48.000Z,7.26
2023-03-04T11:04:48.000Z,7.30
2023-03-04T11:05:48.000Z,7.33
2023-03-04T11:06:48.000Z,7.39
2023-03-04T11:07:48.000Z,7.41
2023-03-04T11:08:48.000Z,7.41
2023-03-04T11:09:48.000Z,7.39
2023-03-04T11:10:48.000Z,7.34
2023-03-04T11:11:48.000Z,7.32
2023-03-04T11:12:48.000Z,7.27
2023-03-04T11:13:48.000Z,7.30
2023-03-04T11:14:48.000Z,7.27
2023-03-04T11:15:48.000Z,7.27
2023-03-04T11:16:48.000Z,7.29
2023-03-04T11:17:48.000Z,7.24
2023-03-04T11:18:48.000Z,7.23
2023-03-04T11:19:48.000Z,7.14
2023-03-04T11:20:48.000Z,7.16
2023-03-04T11:21:48.000Z,7.15
2023-03-04T11:22:48.000Z,7.15
2023-03-04T11:23:48.000Z,7.12
2023-03-04T11:24:48.000Z,7.14
2023-03-04T11:25:48.000Z,7.14
2023-03-04T11:26:48.000Z,7.14
2023-03-04T11:27:48.000Z,7.19
2023-03-04T11:28:48.000Z,7.16
2023-03-04T11:29:48.000Z,7.21
2023-03-04T11:30:48.000Z,7.18
2023-03-04T11:31:48.000Z,7.21
2023-03-04T11:32:48.000Z,7.18
2023-03-04T11:33:48.000Z,7.18
2023-03-04T11:34:48.000Z,7.21
2023-03-04T11:35:48.000Z,7.18
2023-03-04T11:36:48.000Z,7.21
2023-03-04T11:37:48.000Z,7.19
2023-03-04T11:38:48.000Z,7.27
2023-03-04T11:39:48.000Z,7.30
2023-03-04T11:40:48.000Z,7.27
2023-03-04T11:41:48.000Z,7.27
2023-03-04T11:42:48.000Z,7.24
2023-03-04T11:43:48.000Z,7.27
2023-03-04T11:44:48.000Z,7.29
2023-03-04T11:45:48.000Z,7.30
2023-03-04T11:46:48.000Z,7.34
2023-03-04T11:47:48.000Z,7.36
2023-03-04T11:48:48.000Z,7.37
2023-03-04T11:49:48.000Z,7.34
2023-03-04T11:50:48.000Z,7.36
2023-03-04T11:51:48.000Z,7.37
2023-03-04T11:52:48.000Z,7.39
2023-03-04T11:53:48.000Z,7.39
2023-03-04T11:54:48.000Z,7.37
2023-03-04T11:55:48.000Z,7.36
2023-03-04T11:56:48.000Z,7.39
2023-03-04T11:57:48.000Z,7.37
2023-03-04T11:58:48.000Z,7.37
2023-03-04T11:59:48.000Z,7.37
2023-03-04T12:00:48.000Z,7.41
2023-03-04T12:01:48.000Z,7.37
2023-03-04T12:02:48.000Z,7.34
2023-03-04T12:03:48.000Z,7.37
2023-03-04T12:04:48.000Z,7.34
2023-03-04T12:05:48.000Z,7.36
2023-03-04T12:06:48.000Z,7.41
2023-03-04T12:07:48.000Z,7.42
2023-03-04T12:08:48.000Z,7.39
2023-03-04T12:09:48.000Z,7.44
2023-03-04T12:10:48.000Z,7.48
2023-03-04T12:11:48.000Z,7.52
2023-03-04T12:12:48.000Z,7.52
2023-03-04T12:13:48.000Z,7.52
2023-03-04T12:14:48.000Z,7.52
2023-03-04T12:15:48.000Z,7.52
2023-03-04T12:16:48.000Z,7.57
2023-03-04T12:17:48.000Z,7.55
2023-03-04T12:18:48.000Z,7.58
2023-03-04T12:19:48.000Z,7.63
2023-03-04T12:20:48.000Z,7.62
2023-03-04T12:21:48.000Z,7.62
2023-03-04T12:22:48.000Z,7.60
2023-03-04T12:23:48.000Z,7.58
2023-03-04T12:24:48.000Z,7.54
2023-03-04T12:25:48.000Z,7.54
2023-03-04T12:26:48.000Z,7.55
2023-03-04T12:27:48.000Z,7.57
2023-03-04T12:28:48.000Z,7.55
2023-03-04T12:29:48.000Z,7.57
2023-03-04T12:30:48.000Z,7.57
2023-03-04T12:31:48.000Z,7.58
2023-03-04T12:32:48.000Z,7.58
2023-03-04T12:33:47.000Z,7.63
2023-03-04T12:34:47.000Z,7.62
2023-03-04T12:35:47.000Z,7.60
2023-03-04T12:36:47.000Z,7.60
2023-03-04T12:37:47.000Z,7.62
2023-03-04T12:38:47.000Z,7.63
2023-03-04T12:39:47.000Z,7.66
2023-03-04T12:40:47.000Z,7.67
2023-03-04T12:41:47.000Z,7.66
2023-03-04T12:42:47.000Z,7.66
2023-03-04T12:43:47.000Z,7.67
2023-03-04T12:44:47.000Z,7.63
2023-03-04T12:45:47.000Z,7.62
2023-03-04T12:46:47.000Z,7.63
2023-03-04T12:47:47.000Z,7.63
2023-03-04T12:48:47.000Z,7.58
2023-03-04T12:49:47.000Z,7.60
2023-03-04T12:50:47.000Z,7.60
2023-03-04T12:51:47.000Z,7.67
2023-03-04T12:52:47.000Z,7.77
2023-03-04T12:53:47.000Z,7.94
2023-03-04T12:54:47.000Z,8.13
2023-03-04T12:55:47.000Z,8.27
2023-03-04T12:56:47.000Z,8.39
2023-03-04T12:57:47.000Z,8.50
2023-03-04T12:58:47.000Z,8.60
2023-03-04T12:59:47.000Z,8.61
2023-03-04T13:00:47.000Z,8.55
2023-03-04T13:01:47.000Z,8.57
2023-03-04T13:02:47.000Z,8.55
2023-03-04T13:03:47.000Z,8.57
2023-03-04T13:04:47.000Z,8.47
2023-03-04T13:05:47.000Z,8.57
2023-03-04T13:06:47.000Z,8.52
2023-03-04T13:07:47.000Z,8.55
2023-03-04T13:08:47.000Z,8.60
2023-03-04T13:09:47.000Z,8.70
2023-03-04T13:10:47.000Z,8.85
2023-03-04T13:11:47.000Z,8.96
2023-03-04T13:12:47.000Z,9.10
2023-03-04T13:13:47.000Z,9.30
2023-03-04T13:14:47.000Z,9.55
2023-03-04T13:15:47.000Z,9.70
2023-03-04T13:16:47.000Z,10.13
2023-03-04T13:17:47.000Z,10.32
2023-03-04T13:18:47.000Z,10.35